createdAt,value
2019-04-05T00:00:06.389Z,12.23
2019-04-05T00:02:37.290Z,11.80
2019-04-05T00:05:06.990Z,11.25
2019-04-05T00:07:36.275Z,11.25
2019-04-05T00:10:07.375Z,11.68
2019-04-05T00:12:36.664Z,10.55
2019-04-05T00:15:15.106Z,11.83
2019-04-05T00:17:37.846Z,11.93
2019-04-05T00:20:08.180Z,11.03
2019-04-05T00:22:37.546Z,11.43
2019-04-05T00:25:06.962Z,11.22
2019-04-05T00:27:36.518Z,12.23
2019-04-05T00:30:07.567Z,10.75
2019-04-05T00:32:36.919Z,11.65
2019-04-05T00:35:07.237Z,11.48
2019-04-05T00:37:36.595Z,11.73
2019-04-05T00:40:08.151Z,10.40
2019-04-05T00:42:37.536Z,11.90
2019-04-05T00:45:07.639Z,11.83
2019-04-05T00:47:36.923Z,12.53
2019-04-05T00:50:07.862Z,11.88
2019-04-05T00:52:37.219Z,12.37
2019-04-05T00:55:06.749Z,11.83
2019-04-05T00:57:36.081Z,11.88
2019-04-05T01:00:06.231Z,12.10
2019-04-05T01:02:36.585Z,11.93
2019-04-05T01:05:06.690Z,11.63
2019-04-05T01:07:36.022Z,11.00
2019-04-05T01:10:05.844Z,11.90
2019-04-05T01:12:35.177Z,11.80
2019-04-05T01:15:04.918Z,11.20
2019-04-05T01:17:34.246Z,12.98
2019-04-05T01:20:03.620Z,11.75
2019-04-05T01:22:32.882Z,11.85
2019-04-05T01:25:05.422Z,12.50
2019-04-05T01:27:35.156Z,12.75
2019-04-05T01:30:05.948Z,12.20
2019-04-05T01:32:35.275Z,13.15
2019-04-05T01:35:05.999Z,11.55
2019-04-05T01:37:36.767Z,12.33
2019-04-05T01:40:07.995Z,12.45
2019-04-05T01:42:37.861Z,12.13
2019-04-05T01:45:08.587Z,12.25
2019-04-05T01:47:37.874Z,12.90
2019-04-05T01:50:09.810Z,12.25
2019-04-05T01:52:39.099Z,12.63
2019-04-05T01:55:08.598Z,11.60
2019-04-05T01:57:37.899Z,12.68
2019-04-05T02:00:11.466Z,11.78
2019-04-05T02:02:40.907Z,12.18
2019-04-05T02:05:10.935Z,11.75
2019-04-05T02:07:40.291Z,11.28
2019-04-05T02:10:09.558Z,11.83
2019-04-05T02:12:38.851Z,11.63
2019-04-05T02:15:08.248Z,12.20
2019-04-05T02:17:37.670Z,12.53
2019-04-05T02:20:09.902Z,11.95
2019-04-05T02:22:39.190Z,12.45
2019-04-05T02:25:09.510Z,12.03
2019-04-05T02:27:38.803Z,12.13
2019-04-05T02:30:08.131Z,12.47
2019-04-05T02:32:37.420Z,12.63
2019-04-05T02:35:07.189Z,12.18
2019-04-05T02:37:37.007Z,13.13
2019-04-05T02:40:13.699Z,11.95
2019-04-05T02:42:42.991Z,13.13
2019-04-05T02:45:12.309Z,12.75
2019-04-05T02:47:41.956Z,13.18
2019-04-05T02:50:11.283Z,12.15
2019-04-05T02:52:41.713Z,13.22
2019-04-05T02:55:11.111Z,13.70
2019-04-05T02:57:42.176Z,14.25
2019-04-05T03:00:11.531Z,13.88
2019-04-05T03:02:40.815Z,14.07
2019-04-05T03:05:10.093Z,13.72
2019-04-05T03:07:39.348Z,13.95
2019-04-05T03:10:08.632Z,13.00
2019-04-05T03:12:37.939Z,13.78
2019-04-05T03:15:07.804Z,13.60
2019-04-05T03:17:37.124Z,13.53
2019-04-05T03:20:07.482Z,14.15
2019-04-05T03:22:36.745Z,13.85
2019-04-05T03:25:06.698Z,13.38
2019-04-05T03:27:36.699Z,13.08
2019-04-05T03:30:07.155Z,12.25
2019-04-05T03:32:36.428Z,12.63
2019-04-05T03:35:06.602Z,13.18
2019-04-05T03:37:35.848Z,12.47
2019-04-05T03:40:06.981Z,13.48
2019-04-05T03:42:36.272Z,12.93
2019-04-05T03:45:07.023Z,14.93
2019-04-05T03:47:36.336Z,14.20
2019-04-05T03:50:08.479Z,13.90
2019-04-05T03:52:37.836Z,15.03
2019-04-05T03:55:07.096Z,13.62
2019-04-05T03:57:36.459Z,13.78
2019-04-05T04:00:06.395Z,14.83
2019-04-05T04:02:35.739Z,14.40
2019-04-05T04:05:06.232Z,14.43
2019-04-05T04:07:36.604Z,14.75
2019-04-05T04:10:06.329Z,15.00
2019-04-05T04:12:35.613Z,15.68
2019-04-05T04:15:14.218Z,15.70
2019-04-05T04:17:44.318Z,14.47
2019-04-05T04:20:33.543Z,16.52
2019-04-05T04:23:02.843Z,15.48
2019-04-05T04:25:32.112Z,15.20
2019-04-05T04:28:01.469Z,17.05
2019-04-05T04:30:30.719Z,15.85
2019-04-05T04:33:00.004Z,14.78
2019-04-05T04:35:30.358Z,15.18
2019-04-05T04:37:59.639Z,14.18
2019-04-05T04:40:28.967Z,15.20
2019-04-05T04:42:58.323Z,15.20
2019-04-05T04:45:27.580Z,15.03
2019-04-05T04:47:56.864Z,14.78
2019-04-05T04:50:26.201Z,15.75
2019-04-05T04:52:55.480Z,16.10
2019-04-05T04:55:24.799Z,15.80
2019-04-05T04:57:54.084Z,16.30
2019-04-05T05:00:23.371Z,16.20
2019-04-05T05:02:52.635Z,16.93
2019-04-05T05:05:21.923Z,15.55
2019-04-05T05:07:51.182Z,15.30
2019-04-05T05:10:20.467Z,16.93
2019-04-05T05:12:49.727Z,17.87
2019-04-05T05:15:19.043Z,16.55
2019-04-05T05:17:58.061Z,16.07
2019-04-05T05:20:19.283Z,16.30
2019-04-05T05:22:48.547Z,15.85
2019-04-05T05:25:17.845Z,15.70
2019-04-05T05:27:47.162Z,17.32
2019-04-05T05:30:16.451Z,18.80
2019-04-05T05:32:45.735Z,19.52
2019-04-05T05:35:14.999Z,17.25
2019-04-05T05:37:44.300Z,17.42
2019-04-05T05:40:13.559Z,17.85
2019-04-05T05:42:42.910Z,17.15
2019-04-05T05:45:12.171Z,17.50
2019-04-05T05:47:51.276Z,19.40
2019-04-05T05:50:12.343Z,19.20
2019-04-05T05:52:41.703Z,19.35
2019-04-05T05:55:11.031Z,20.27
2019-04-05T05:57:40.311Z,19.05
2019-04-05T06:00:09.895Z,19.27
2019-04-05T06:02:39.497Z,19.32
2019-04-05T06:05:08.995Z,20.25
2019-04-05T06:07:38.275Z,20.62
2019-04-05T06:10:07.531Z,19.75
2019-04-05T06:12:36.903Z,21.02
2019-04-05T06:15:06.547Z,18.80
2019-04-05T06:17:35.831Z,20.10
2019-04-05T06:20:06.127Z,20.05
2019-04-05T06:22:35.555Z,20.27
2019-04-05T06:25:06.955Z,19.87
2019-04-05T06:27:36.239Z,20.43
2019-04-05T06:30:06.464Z,20.48
2019-04-05T06:32:35.767Z,19.55
2019-04-05T06:35:08.084Z,21.80
2019-04-05T06:37:38.443Z,20.17
2019-04-05T06:40:08.898Z,20.65
2019-04-05T06:42:38.228Z,21.25
2019-04-05T06:45:07.517Z,23.07
2019-04-05T06:47:36.887Z,20.45
2019-04-05T06:50:07.306Z,19.92
2019-04-05T06:52:36.643Z,20.50
2019-04-05T06:55:06.499Z,21.52
2019-04-05T06:57:35.761Z,21.37
2019-04-05T07:00:05.719Z,21.00
2019-04-05T07:02:36.151Z,20.48
2019-04-05T07:05:06.931Z,21.42
2019-04-05T07:07:37.259Z,21.02
2019-04-05T07:10:07.612Z,21.50
2019-04-05T07:12:36.873Z,20.10
2019-04-05T07:15:07.132Z,20.15
2019-04-05T07:17:36.454Z,19.67
2019-04-05T07:20:06.207Z,20.70
2019-04-05T07:22:39.235Z,19.42
2019-04-05T07:25:06.714Z,22.00
2019-04-05T07:27:36.049Z,20.40
2019-04-05T07:30:06.582Z,21.07
2019-04-05T07:32:35.859Z,20.65
2019-04-05T07:35:05.899Z,21.10
2019-04-05T07:37:35.164Z,19.27
2019-04-05T07:40:05.883Z,20.43
2019-04-05T07:42:35.143Z,20.85
2019-04-05T07:45:05.971Z,19.32
2019-04-05T07:47:35.315Z,21.15
2019-04-05T07:50:06.826Z,20.80
2019-04-05T07:52:36.139Z,19.55
2019-04-05T07:55:08.192Z,20.02
2019-04-05T07:57:37.515Z,20.75
2019-04-05T08:00:07.548Z,20.92
2019-04-05T08:02:36.875Z,20.27
2019-04-05T08:05:07.495Z,19.95
2019-04-05T08:07:40.103Z,20.17
2019-04-05T08:10:10.058Z,20.08
2019-04-05T08:12:39.359Z,19.27
2019-04-05T08:15:09.653Z,19.07
2019-04-05T08:17:38.946Z,19.95
2019-04-05T08:20:08.227Z,18.87
2019-04-05T08:22:37.491Z,20.82
2019-04-05T08:25:06.882Z,18.48
2019-04-05T08:27:36.232Z,17.67
2019-04-05T08:30:08.445Z,18.55
2019-04-05T08:32:37.727Z,19.52
2019-04-05T08:35:06.986Z,18.30
2019-04-05T08:37:37.455Z,19.07
2019-04-05T08:40:07.081Z,19.50
2019-04-05T08:42:36.503Z,19.65
2019-04-05T08:45:06.509Z,18.73
2019-04-05T08:47:35.790Z,24.75
2019-04-05T08:50:08.338Z,20.05
2019-04-05T08:52:37.630Z,17.20
2019-04-05T08:55:06.955Z,16.77
2019-04-05T08:57:36.247Z,16.17
2019-04-05T09:00:07.411Z,15.63
2019-04-05T09:02:36.720Z,16.12
2019-04-05T09:05:06.835Z,15.03
2019-04-05T09:07:36.119Z,15.85
2019-04-05T09:10:06.618Z,14.98
2019-04-05T09:12:35.915Z,15.03
2019-04-05T09:15:06.439Z,15.58
2019-04-05T09:17:35.703Z,16.30
2019-04-05T09:20:05.440Z,16.23
2019-04-05T09:22:34.795Z,14.83
2019-04-05T09:25:05.795Z,13.80
2019-04-05T09:27:35.080Z,14.38
2019-04-05T09:30:07.123Z,14.43
2019-04-05T09:32:37.423Z,13.28
2019-04-05T09:35:06.708Z,13.48
2019-04-05T09:37:35.963Z,13.98
2019-04-05T09:40:07.132Z,14.13
2019-04-05T09:42:36.435Z,13.78
2019-04-05T09:45:06.458Z,13.18
2019-04-05T09:47:35.783Z,12.47
2019-04-05T09:50:06.443Z,13.03
2019-04-05T09:52:35.790Z,13.68
2019-04-05T09:55:05.938Z,13.53
2019-04-05T09:57:35.310Z,12.35
2019-04-05T10:00:07.907Z,12.65
2019-04-05T10:02:37.439Z,12.40
2019-04-05T10:05:06.895Z,12.58
2019-04-05T10:07:36.227Z,12.05
2019-04-05T10:10:05.539Z,12.37
2019-04-05T10:12:34.874Z,12.35
2019-04-05T10:15:08.459Z,12.13
2019-04-05T10:17:37.879Z,12.50
2019-04-05T10:20:10.104Z,12.75
2019-04-05T10:22:40.459Z,12.68
2019-04-05T10:25:09.790Z,12.10
2019-04-05T10:27:39.099Z,12.45
2019-04-05T10:30:11.335Z,13.35
2019-04-05T10:32:40.614Z,13.13
2019-04-05T10:35:09.947Z,12.75
2019-04-05T10:37:39.235Z,14.40
2019-04-05T10:40:08.769Z,13.10
2019-04-05T10:42:38.148Z,13.58
2019-04-05T10:45:09.675Z,13.35
2019-04-05T10:47:39.034Z,14.65
2019-04-05T10:50:09.435Z,14.18
2019-04-05T10:52:38.913Z,15.05
2019-04-05T10:55:08.728Z,14.33
2019-04-05T10:57:38.067Z,15.80
2019-04-05T11:00:13.991Z,13.20
2019-04-05T11:02:43.351Z,15.58
2019-04-05T11:05:12.611Z,14.85
2019-04-05T11:07:41.896Z,14.18
2019-04-05T11:10:11.184Z,16.15
2019-04-05T11:12:40.519Z,15.75
2019-04-05T11:15:09.983Z,15.93
2019-04-05T11:17:42.585Z,15.78
2019-04-05T11:20:21.274Z,16.23
2019-04-05T11:22:42.935Z,15.28
2019-04-05T11:25:13.391Z,15.80
2019-04-05T11:27:42.659Z,15.60
2019-04-05T11:30:12.022Z,15.93
2019-04-05T11:32:41.295Z,16.77
2019-04-05T11:35:11.664Z,15.85
2019-04-05T11:37:41.000Z,15.10
2019-04-05T11:40:10.563Z,16.70
2019-04-05T11:42:39.968Z,14.80
2019-04-05T11:45:09.527Z,14.98
2019-04-05T11:47:38.970Z,16.12
2019-04-05T11:50:09.795Z,15.83
2019-04-05T11:52:39.067Z,16.07
2019-04-05T11:55:08.356Z,14.70
2019-04-05T11:57:41.012Z,15.15
2019-04-05T12:00:12.927Z,15.93
2019-04-05T12:02:54.143Z,15.65
2019-04-05T12:05:26.924Z,14.53
2019-04-05T12:07:58.602Z,15.15
2019-04-05T12:10:25.466Z,15.65
2019-04-05T12:12:54.837Z,14.98
2019-04-05T12:15:24.107Z,14.23
2019-04-05T12:17:53.563Z,14.53
2019-04-05T12:20:22.834Z,15.63
2019-04-05T12:22:52.603Z,15.05
2019-04-05T12:25:22.039Z,15.53
2019-04-05T12:27:51.732Z,15.83
2019-04-05T12:30:22.659Z,14.58
2019-04-05T12:32:51.947Z,15.45
2019-04-05T12:35:22.017Z,15.95
2019-04-05T12:37:55.434Z,14.98
2019-04-05T12:40:22.259Z,15.32
2019-04-05T12:42:53.165Z,16.20
2019-04-05T12:45:22.663Z,16.17
2019-04-05T12:47:52.095Z,17.67
2019-04-05T12:50:21.360Z,18.17
2019-04-05T12:52:50.651Z,18.62
2019-04-05T12:55:23.843Z,18.32
2019-04-05T12:57:50.833Z,17.73
2019-04-05T13:00:20.573Z,18.20
2019-04-05T13:02:50.285Z,17.00
2019-04-05T13:05:21.874Z,16.65
2019-04-05T13:07:53.315Z,17.60
2019-04-05T13:10:26.065Z,18.15
2019-04-05T13:12:57.801Z,17.07
2019-04-05T13:15:29.271Z,16.93
2019-04-05T13:18:01.215Z,17.37
2019-04-05T13:20:30.879Z,17.92
2019-04-05T13:23:02.516Z,18.65
2019-04-05T13:25:31.319Z,16.12
2019-04-05T13:28:12.451Z,17.40
2019-04-05T13:30:31.651Z,16.93
2019-04-05T13:33:00.924Z,16.60
2019-04-05T13:35:30.850Z,17.35
2019-04-05T13:38:00.671Z,16.40
2019-04-05T13:40:30.710Z,15.98
2019-04-05T13:43:02.041Z,16.50
2019-04-05T13:45:30.977Z,15.55
2019-04-05T13:48:00.242Z,16.10
2019-04-05T13:50:29.539Z,15.70
2019-04-05T13:52:58.885Z,15.13
2019-04-05T13:55:28.167Z,17.82
2019-04-05T13:57:57.439Z,16.30
2019-04-05T14:00:26.767Z,15.10
2019-04-05T14:02:56.111Z,15.45
2019-04-05T14:05:25.586Z,15.65
2019-04-05T14:08:09.116Z,16.25
2019-04-05T14:10:25.767Z,15.88
2019-04-05T14:12:55.104Z,15.93
2019-04-05T14:15:24.414Z,17.07
2019-04-05T14:17:53.747Z,16.45
2019-04-05T14:20:24.389Z,17.42
2019-04-05T14:22:53.907Z,17.85
2019-04-05T14:25:26.080Z,18.87
2019-04-05T14:27:55.731Z,16.87
2019-04-05T14:30:25.086Z,17.15
2019-04-05T14:32:55.652Z,16.80
2019-04-05T14:35:26.223Z,16.20
2019-04-05T14:37:55.491Z,15.93
2019-04-05T14:40:28.548Z,16.05
2019-04-05T14:42:55.763Z,14.60
2019-04-05T14:45:25.118Z,14.75
2019-04-05T14:47:57.634Z,16.23
2019-04-05T14:50:25.414Z,16.95
2019-04-05T14:52:54.779Z,16.45
2019-04-05T14:55:24.064Z,14.58
2019-04-05T14:57:53.454Z,15.50
2019-04-05T15:00:22.763Z,15.63
2019-04-05T15:02:52.123Z,14.93
2019-04-05T15:05:21.458Z,16.42
2019-04-05T15:07:51.725Z,15.40
2019-04-05T15:10:21.092Z,16.32
2019-04-05T15:12:50.568Z,17.27
2019-04-05T15:15:19.827Z,16.15
2019-04-05T15:17:49.191Z,17.75
2019-04-05T15:20:18.499Z,17.80
2019-04-05T15:22:47.851Z,17.65
2019-04-05T15:25:21.560Z,51.88
2019-04-05T15:27:51.328Z,17.27
2019-04-05T15:30:20.255Z,16.90
2019-04-05T15:32:51.383Z,17.15
2019-04-05T15:35:20.440Z,16.23
2019-04-05T15:37:49.734Z,16.97
2019-04-05T15:40:19.071Z,17.65
2019-04-05T15:42:48.439Z,15.93
2019-04-05T15:45:17.779Z,16.25
2019-04-05T15:47:47.066Z,16.27
2019-04-05T15:50:16.670Z,16.80
2019-04-05T15:52:46.080Z,16.87
2019-04-05T15:55:16.544Z,17.77
2019-04-05T15:57:45.891Z,18.00
2019-04-05T16:00:19.970Z,18.62
2019-04-05T16:02:49.307Z,18.67
2019-04-05T16:05:18.675Z,19.77
2019-04-05T16:07:48.211Z,20.20
2019-04-05T16:10:17.504Z,18.30
2019-04-05T16:12:46.862Z,19.00
2019-04-05T16:15:16.150Z,19.65
2019-04-05T16:17:45.480Z,19.65
2019-04-05T16:20:15.811Z,19.70
2019-04-05T16:22:45.152Z,20.92
2019-04-05T16:25:14.471Z,20.95
2019-04-05T16:27:43.809Z,20.15
2019-04-05T16:30:13.175Z,21.80
2019-04-05T16:32:42.535Z,20.77
2019-04-05T16:35:14.439Z,19.17
2019-04-05T16:37:42.812Z,22.15
2019-04-05T16:40:12.119Z,21.82
2019-04-05T16:42:41.456Z,21.17
2019-04-05T16:45:12.571Z,21.23
2019-04-05T16:47:41.927Z,20.85
2019-04-05T16:50:11.278Z,21.25
2019-04-05T16:52:44.993Z,20.92
2019-04-05T16:55:11.455Z,22.73
2019-04-05T16:57:40.791Z,22.20
2019-04-05T17:00:11.858Z,22.42
2019-04-05T17:02:41.223Z,21.70
2019-04-05T17:05:10.547Z,20.55
2019-04-05T17:07:39.979Z,21.15
2019-04-05T17:10:09.247Z,20.55
2019-04-05T17:12:40.187Z,21.52
2019-04-05T17:15:10.269Z,21.30
2019-04-05T17:17:39.590Z,21.45
2019-04-05T17:20:10.565Z,21.70
2019-04-05T17:22:40.030Z,22.35
2019-04-05T17:25:09.464Z,21.55
2019-04-05T17:27:38.759Z,22.37
2019-04-05T17:30:08.091Z,21.62
2019-04-05T17:32:39.146Z,24.00
2019-04-05T17:35:08.422Z,20.80
2019-04-05T17:37:37.883Z,22.32
2019-04-05T17:40:07.818Z,24.02
2019-04-05T17:42:37.179Z,21.30
2019-04-05T17:45:07.491Z,24.07
2019-04-05T17:47:36.951Z,21.85
2019-04-05T17:50:06.490Z,23.57
2019-04-05T17:52:35.844Z,23.07
2019-04-05T17:55:05.171Z,22.48
2019-04-05T17:57:34.601Z,24.02
2019-04-05T18:00:10.001Z,23.18
2019-04-05T18:02:39.395Z,23.87
2019-04-05T18:05:08.727Z,23.98
2019-04-05T18:07:38.083Z,21.95
2019-04-05T18:10:07.487Z,23.30
2019-04-05T18:12:36.963Z,23.45
2019-04-05T18:15:06.315Z,23.52
2019-04-05T18:17:36.846Z,24.15
2019-04-05T18:20:09.617Z,22.82
2019-04-05T18:22:37.969Z,24.27
2019-04-05T18:25:07.226Z,22.82
2019-04-05T18:27:36.587Z,24.00
2019-04-05T18:30:06.687Z,22.48
2019-04-05T18:32:36.043Z,23.35
2019-04-05T18:35:05.978Z,23.77
2019-04-05T18:37:35.481Z,23.62
2019-04-05T18:40:06.724Z,23.98
2019-04-05T18:42:36.019Z,23.62
2019-04-05T18:45:06.947Z,22.67
2019-04-05T18:47:36.209Z,23.15
2019-04-05T18:50:07.135Z,22.73
2019-04-05T18:52:36.387Z,22.60
2019-04-05T18:55:06.717Z,24.20
2019-04-05T18:57:37.062Z,23.95
2019-04-05T19:00:07.598Z,23.75
2019-04-05T19:02:36.927Z,24.05
2019-04-05T19:05:07.298Z,22.52
2019-04-05T19:07:36.558Z,23.90
2019-04-05T19:10:07.467Z,24.10
2019-04-05T19:12:36.738Z,23.67
2019-04-05T19:15:07.151Z,23.15
2019-04-05T19:17:36.414Z,24.60
2019-04-05T19:20:06.738Z,23.73
2019-04-05T19:22:37.216Z,24.35
2019-04-05T19:25:07.238Z,25.50
2019-04-05T19:27:36.577Z,24.00
2019-04-05T19:50:16.486Z,25.25
2019-04-05T19:52:45.755Z,26.62
2019-04-05T19:55:15.038Z,25.75
2019-04-05T19:57:44.295Z,25.20
2019-04-05T20:00:13.579Z,25.60
2019-04-05T20:02:43.107Z,25.60
2019-04-05T20:05:12.468Z,26.45
2019-04-05T20:07:41.810Z,25.05
2019-04-05T20:10:11.150Z,24.40
2019-04-05T20:12:41.589Z,24.32
2019-04-05T20:15:10.870Z,23.65
2019-04-05T20:17:40.195Z,24.57
2019-04-05T20:20:09.622Z,24.95
2019-04-05T20:22:38.955Z,24.43
2019-04-05T20:25:08.327Z,23.70
2019-04-05T20:27:37.586Z,25.23
2019-04-05T20:30:07.446Z,26.30
2019-04-05T20:32:36.782Z,24.10
2019-04-05T20:35:06.079Z,25.68
2019-04-05T20:37:35.403Z,24.72
2019-04-05T20:40:06.703Z,25.92
2019-04-05T20:42:36.099Z,25.75
2019-04-05T20:45:05.660Z,25.35
2019-04-05T20:47:34.990Z,26.07
2019-04-05T20:50:06.115Z,24.57
2019-04-05T20:52:35.448Z,27.02
2019-04-05T20:55:06.370Z,23.57
2019-04-05T20:57:36.743Z,25.85
2019-04-05T21:00:08.128Z,24.87
2019-04-05T21:02:38.863Z,25.88
2019-04-05T21:05:08.227Z,25.08
2019-04-05T21:07:37.483Z,26.55
2019-04-05T21:10:07.110Z,24.07
2019-04-05T21:12:36.442Z,25.08
2019-04-05T21:15:06.502Z,27.45
2019-04-05T21:17:35.843Z,27.80
2019-04-05T21:20:06.574Z,25.20
2019-04-05T21:22:35.911Z,25.10
2019-04-05T21:25:09.813Z,25.48
2019-04-05T21:27:39.263Z,24.00
2019-04-05T21:30:09.753Z,23.57
2019-04-05T21:32:39.258Z,26.20
2019-04-05T21:35:08.592Z,26.68
2019-04-05T21:37:38.146Z,25.70
2019-04-05T21:40:07.410Z,26.12
2019-04-05T21:42:36.694Z,26.97
2019-04-05T21:45:06.795Z,25.97
2019-04-05T21:47:36.080Z,25.65
2019-04-05T21:50:08.782Z,26.62
2019-04-05T21:52:38.031Z,25.25
2019-04-05T21:55:07.658Z,25.45
2019-04-05T21:57:36.958Z,25.82
2019-04-05T22:00:24.863Z,25.27
2019-04-05T22:02:55.771Z,27.37
2019-04-05T22:05:25.055Z,24.72
2019-04-05T22:07:54.386Z,27.02
2019-04-05T22:10:23.670Z,26.23
2019-04-05T22:12:53.907Z,27.50
2019-04-05T22:15:23.192Z,27.27
2019-04-05T22:17:53.701Z,27.15
2019-04-05T22:20:24.358Z,27.20
2019-04-05T22:22:53.691Z,26.85
2019-04-05T22:25:22.975Z,26.50
2019-04-05T22:27:52.242Z,25.97
2019-04-05T22:30:21.590Z,25.90
2019-04-05T22:32:50.848Z,26.60
2019-04-05T22:35:20.136Z,25.27
2019-04-05T22:37:49.396Z,25.20
2019-04-05T22:40:18.681Z,25.77
2019-04-05T22:42:48.006Z,25.82
2019-04-05T22:45:17.398Z,25.43
2019-04-05T22:47:46.665Z,25.25
2019-04-05T22:50:15.944Z,26.85
2019-04-05T22:52:45.202Z,25.15
2019-04-05T22:55:14.488Z,25.80
2019-04-05T22:57:43.820Z,24.25
2019-04-05T23:00:13.107Z,24.60
2019-04-05T23:02:43.983Z,24.98
2019-04-05T23:05:13.271Z,26.37
2019-04-05T23:07:42.531Z,25.35
2019-04-05T23:10:11.817Z,25.77
2019-04-05T23:12:42.042Z,25.23
2019-04-05T23:15:11.476Z,25.15
2019-04-05T23:17:40.730Z,25.25
2019-04-05T23:20:10.190Z,25.72
2019-04-05T23:22:39.454Z,27.00
2019-04-05T23:25:08.802Z,24.87
2019-04-05T23:27:38.069Z,25.70
2019-04-05T23:30:07.883Z,24.95
2019-04-05T23:32:37.150Z,25.05
2019-04-05T23:35:06.898Z,25.00
2019-04-05T23:37:36.158Z,25.10
2019-04-05T23:40:06.127Z,24.90
2019-04-05T23:42:36.447Z,23.98
2019-04-05T23:45:06.590Z,24.77
2019-04-05T23:47:35.855Z,24.98
2019-04-05T23:50:05.891Z,25.60
2019-04-05T23:52:35.155Z,24.25
2019-04-05T23:55:05.980Z,24.67
2019-04-05T23:57:35.307Z,24.92
